Time;durP1;ratioP1;P1;durP2;ratioP2;P2;SDS_P1;SDS_P2;PMS_P1;PMS_P2;Temp;Humidity;BMP_temperature;BMP_pressure;BME280_temperature;BME280_humidity;BME280_pressure;Samples;Min_cycle;Max_cycle;Signal;HPM_P1;HPM_P2
2023/01/18 00:01:41;;;;;;;9.17;3.00;;;;;;;;;;4401197;32;318283;-83
2023/01/18 00:04:08;;;;;;;14.03;2.73;;;;;;;;;;4391168;32;365027;-84
2023/01/18 00:06:35;;;;;;;14.77;3.20;;;;;;;;;;4402083;32;318226;-85
2023/01/18 00:09:02;;;;;;;10.17;2.97;;;;;;;;;;4400886;32;317827;-84
2023/01/18 00:11:30;;;;;;;13.73;3.20;;;;;;;;;;4390853;32;317475;-84
2023/01/18 00:13:56;;;;;;;17.47;6.57;;;;;;;;;;4401216;32;317410;-84
2023/01/18 00:16:24;;;;;;;16.73;4.83;;;;;;;;;;4391119;32;318217;-84
2023/01/18 00:18:52;;;;;;;17.00;5.07;;;;;;;;;;4402895;32;318484;-83
2023/01/18 00:21:19;;;;;;;23.57;4.77;;;;;;;;;;4395077;32;317723;-84
2023/01/18 00:23:46;;;;;;;11.90;4.63;;;;;;;;;;4405322;32;318252;-84
2023/01/18 00:26:34;;;;;;;15.90;5.30;;;;;;;;;;4393632;32;317583;-83
2023/01/18 00:29:12;;;;;;;18.07;4.90;;;;;;;;;;4404266;32;317519;-84
2023/01/18 00:31:39;;;;;;;16.03;3.43;;;;;;;;;;4392129;32;417438;-83
2023/01/18 00:34:07;;;;;;;11.57;4.23;;;;;;;;;;4395301;32;318122;-85
2023/01/18 00:36:34;;;;;;;21.47;4.30;;;;;;;;;;4403846;32;318349;-83
2023/01/18 00:39:01;;;;;;;8.47;3.20;;;;;;;;;;4404089;32;318187;-84
2023/01/18 00:41:28;;;;;;;12.00;4.53;;;;;;;;;;4392643;32;317200;-84
2023/01/18 00:43:54;;;;;;;10.80;3.50;;;;;;;;;;4403979;32;318176;-83
2023/01/18 00:46:24;;;;;;;21.70;5.90;;;;;;;;;;4393829;32;318429;-84
2023/01/18 00:48:52;;;;;;;19.70;4.17;;;;;;;;;;4404494;32;317586;-83
2023/01/18 00:51:20;;;;;;;9.90;3.50;;;;;;;;;;4393478;32;325612;-84
2023/01/18 00:53:47;;;;;;;10.37;3.13;;;;;;;;;;4405149;32;317509;-83
2023/01/18 00:56:16;;;;;;;6.70;2.27;;;;;;;;;;4393400;32;318181;-84
2023/01/18 00:58:43;;;;;;;10.70;3.00;;;;;;;;;;4403833;32;317131;-83
2023/01/18 01:01:11;;;;;;;10.13;3.10;;;;;;;;;;4394488;32;318337;-83
2023/01/18 01:06:45;;;;;;;14.53;3.40;;;;;;;;;;4394528;32;318156;-84
2023/01/18 01:09:13;;;;;;;9.83;2.67;;;;;;;;;;4393343;32;318200;-84
2023/01/18 01:12:31;;;;;;;12.37;3.33;;;;;;;;;;4404595;32;317127;-84
2023/01/18 01:28:11;;;;;;;14.70;3.90;;;;;;;;;;4361102;32;317065;-84
2023/01/18 01:30:37;;;;;;;9.30;3.20;;;;;;;;;;4371432;32;318152;-84
2023/01/18 01:33:04;;;;;;;9.67;2.80;;;;;;;;;;4393072;32;317870;-84
2023/01/18 01:35:32;;;;;;;16.43;4.17;;;;;;;;;;4391754;32;415914;-84
2023/01/18 01:37:59;;;;;;;8.23;2.60;;;;;;;;;;4403701;32;318235;-85
2023/01/18 01:40:26;;;;;;;10.43;2.33;;;;;;;;;;4392990;32;316446;-84
2023/01/18 01:42:52;;;;;;;7.07;2.30;;;;;;;;;;4402945;32;318261;-83
2023/01/18 01:45:21;;;;;;;14.10;2.63;;;;;;;;;;4394072;32;317283;-84
2023/01/18 01:47:48;;;;;;;11.63;2.47;;;;;;;;;;4403043;32;317482;-84
2023/01/18 01:50:21;;;;;;;13.03;3.03;;;;;;;;;;4394021;32;318270;-84
2023/01/18 01:52:50;;;;;;;12.93;2.70;;;;;;;;;;4404016;32;318034;-84
2023/01/18 01:55:22;;;;;;;9.73;3.30;;;;;;;;;;4394034;32;318567;-84
2023/01/18 01:57:53;;;;;;;7.53;2.30;;;;;;;;;;4402924;32;317371;-83
2023/01/18 02:00:22;;;;;;;13.00;2.73;;;;;;;;;;4393565;32;328694;-84
2023/01/18 02:02:53;;;;;;;12.30;2.50;;;;;;;;;;4403872;32;318731;-84
2023/01/18 02:05:21;;;;;;;10.73;2.67;;;;;;;;;;4393902;32;318299;-84
2023/01/18 02:07:49;;;;;;;14.37;4.33;;;;;;;;;;4404011;32;318387;-85
2023/01/18 02:10:16;;;;;;;11.60;3.97;;;;;;;;;;4392314;32;318482;-85
2023/01/18 02:12:46;;;;;;;7.90;3.63;;;;;;;;;;4403796;32;317900;-85
2023/01/18 02:15:13;;;;;;;11.10;3.63;;;;;;;;;;4392415;32;316702;-84
2023/01/18 02:18:05;;;;;;;13.20;3.30;;;;;;;;;;4402404;32;317547;-84
2023/01/18 02:20:56;;;;;;;9.40;2.70;;;;;;;;;;4390847;32;417767;-84
2023/01/18 02:23:40;;;;;;;7.97;2.77;;;;;;;;;;4392724;32;317238;-84
2023/01/18 02:26:30;;;;;;;12.53;2.40;;;;;;;;;;4391669;32;373485;-85
2023/01/18 02:29:04;;;;;;;15.60;4.90;;;;;;;;;;4403505;32;317528;-83
2023/01/18 02:31:38;;;;;;;14.40;2.60;;;;;;;;;;4389312;32;418168;-84
2023/01/18 02:34:12;;;;;;;13.63;3.17;;;;;;;;;;4402250;32;317983;-86
2023/01/18 02:36:46;;;;;;;8.40;2.37;;;;;;;;;;4402027;32;318315;-83
2023/01/18 02:39:22;;;;;;;14.27;3.40;;;;;;;;;;4393695;32;317302;-84
2023/01/18 02:47:34;;;;;;;14.10;2.40;;;;;;;;;;4391474;32;387885;-85
2023/01/18 02:50:03;;;;;;;7.87;3.27;;;;;;;;;;4402054;32;318282;-84
2023/01/18 02:52:39;;;;;;;7.00;2.90;;;;;;;;;;4390322;32;382349;-83
2023/01/18 02:55:09;;;;;;;10.67;2.70;;;;;;;;;;4393326;32;317350;-83
2023/01/18 02:57:37;;;;;;;12.67;2.77;;;;;;;;;;4403192;32;318392;-83
2023/01/18 03:00:10;;;;;;;13.60;2.70;;;;;;;;;;4401578;32;317370;-83
2023/01/18 03:02:39;;;;;;;11.20;2.93;;;;;;;;;;4389069;32;417472;-83
2023/01/18 03:05:08;;;;;;;13.83;2.97;;;;;;;;;;4389337;32;318277;-84
2023/01/18 03:07:43;;;;;;;13.57;3.70;;;;;;;;;;4402908;32;318283;-83
2023/01/18 03:10:11;;;;;;;16.70;4.13;;;;;;;;;;4392847;32;318168;-83
2023/01/18 03:12:48;;;;;;;23.27;3.37;;;;;;;;;;4402897;32;318279;-83
2023/01/18 03:15:23;;;;;;;15.30;3.50;;;;;;;;;;4391703;32;318304;-83
2023/01/18 03:17:52;;;;;;;10.23;2.50;;;;;;;;;;4400502;32;357546;-83
2023/01/18 03:20:33;;;;;;;10.00;2.67;;;;;;;;;;4391590;32;318639;-83
2023/01/18 03:25:50;;;;;;;15.27;3.30;;;;;;;;;;4390704;32;387916;-83
2023/01/18 03:34:01;;;;;;;8.63;2.93;;;;;;;;;;4401370;32;318089;-83
2023/01/18 03:36:32;;;;;;;11.03;3.07;;;;;;;;;;4391378;32;317409;-83
2023/01/18 03:39:03;;;;;;;9.87;2.53;;;;;;;;;;4401578;32;318318;-83
2023/01/18 03:41:32;;;;;;;13.20;3.30;;;;;;;;;;4373451;32;416980;-83
2023/01/18 03:44:06;;;;;;;9.20;2.70;;;;;;;;;;4387477;32;318213;-83
2023/01/18 03:46:34;;;;;;;10.07;3.00;;;;;;;;;;4389591;32;416215;-83
2023/01/18 03:49:01;;;;;;;22.87;4.20;;;;;;;;;;4402608;32;318520;-83
2023/01/18 03:51:46;;;;;;;14.27;3.03;;;;;;;;;;4392423;32;318604;-83
2023/01/18 03:54:19;;;;;;;12.33;3.13;;;;;;;;;;4391367;32;318492;-83
2023/01/18 03:56:51;;;;;;;16.10;2.90;;;;;;;;;;4402325;32;318608;-83
2023/01/18 03:59:18;;;;;;;15.90;3.00;;;;;;;;;;4392575;32;317640;-83
2023/01/18 04:01:47;;;;;;;10.63;3.87;;;;;;;;;;4401277;32;318394;-83
2023/01/18 04:04:14;;;;;;;16.40;5.17;;;;;;;;;;4392456;32;318817;-84
2023/01/18 04:06:41;;;;;;;13.33;2.60;;;;;;;;;;4402018;32;318272;-83
2023/01/18 04:09:08;;;;;;;7.97;2.37;;;;;;;;;;4390498;32;318152;-86
2023/01/18 04:11:35;;;;;;;15.67;4.20;;;;;;;;;;4400156;32;342755;-84
2023/01/18 04:14:01;;;;;;;18.20;4.67;;;;;;;;;;4402318;32;317814;-83
2023/01/18 04:16:28;;;;;;;17.13;4.93;;;;;;;;;;4392185;32;318328;-83
2023/01/18 04:18:56;;;;;;;16.07;5.10;;;;;;;;;;4401528;32;317699;-84
2023/01/18 04:21:23;;;;;;;11.47;3.57;;;;;;;;;;4391978;32;318228;-83
2023/01/18 04:23:50;;;;;;;15.77;3.97;;;;;;;;;;4401069;32;318764;-83
2023/01/18 04:26:18;;;;;;;16.13;3.90;;;;;;;;;;4390802;32;318678;-84
2023/01/18 04:28:44;;;;;;;11.67;2.70;;;;;;;;;;4402254;32;318335;-83
2023/01/18 04:31:11;;;;;;;14.23;3.70;;;;;;;;;;4391741;32;318554;-83
2023/01/18 04:33:38;;;;;;;15.63;3.97;;;;;;;;;;4401185;32;318543;-83
2023/01/18 04:36:07;;;;;;;17.83;5.27;;;;;;;;;;4400794;32;318133;-83
2023/01/18 04:38:34;;;;;;;23.60;5.93;;;;;;;;;;4388192;32;417454;-83
2023/01/18 04:41:03;;;;;;;11.20;4.43;;;;;;;;;;4401139;32;341040;-83
2023/01/18 04:43:30;;;;;;;18.73;5.17;;;;;;;;;;4389241;32;350711;-84
2023/01/18 04:45:57;;;;;;;19.67;4.43;;;;;;;;;;4401645;32;318590;-83
2023/01/18 04:48:25;;;;;;;9.87;3.37;;;;;;;;;;4390945;32;318472;-83
2023/01/18 04:50:52;;;;;;;15.37;3.07;;;;;;;;;;4402074;32;317425;-83
2023/01/18 04:53:20;;;;;;;17.77;6.33;;;;;;;;;;4392046;32;318320;-83
2023/01/18 04:55:48;;;;;;;17.43;4.63;;;;;;;;;;4401694;32;318602;-84
2023/01/18 04:58:15;;;;;;;26.77;3.70;;;;;;;;;;4392088;32;318367;-84
2023/01/18 05:00:41;;;;;;;21.07;7.17;;;;;;;;;;4401960;32;318221;-83
2023/01/18 05:03:09;;;;;;;6.30;2.73;;;;;;;;;;4391996;32;318460;-83
2023/01/18 05:05:35;;;;;;;31.30;12.80;;;;;;;;;;4403149;32;316537;-84
2023/01/18 05:08:02;;;;;;;30.20;11.87;;;;;;;;;;4403924;32;318781;-84
2023/01/18 05:10:32;;;;;;;18.50;4.97;;;;;;;;;;4393574;32;319872;-83
2023/01/18 05:12:59;;;;;;;13.17;3.50;;;;;;;;;;4401931;32;341712;-83
2023/01/18 05:15:25;;;;;;;13.27;3.90;;;;;;;;;;4394583;32;317987;-83
2023/01/18 05:17:52;;;;;;;15.80;4.13;;;;;;;;;;4404550;32;318189;-83
2023/01/18 05:20:19;;;;;;;15.23;6.53;;;;;;;;;;4393045;32;318677;-83
2023/01/18 05:22:46;;;;;;;13.73;3.70;;;;;;;;;;4402280;32;351347;-83
2023/01/18 05:25:15;;;;;;;9.40;3.43;;;;;;;;;;4394160;32;317876;-84
2023/01/18 05:27:44;;;;;;;17.80;3.87;;;;;;;;;;4404563;32;317385;-83
2023/01/18 05:30:12;;;;;;;17.77;4.20;;;;;;;;;;4394219;32;318459;-86
2023/01/18 05:32:39;;;;;;;25.53;4.53;;;;;;;;;;4404373;32;318332;-83
2023/01/18 05:35:07;;;;;;;8.67;3.30;;;;;;;;;;4393346;32;318476;-85
2023/01/18 05:37:33;;;;;;;9.63;3.57;;;;;;;;;;4404087;32;316583;-83
2023/01/18 05:40:00;;;;;;;10.00;3.03;;;;;;;;;;4404022;32;317404;-84
2023/01/18 05:42:27;;;;;;;12.97;3.13;;;;;;;;;;4392937;32;318156;-84
2023/01/18 05:44:55;;;;;;;10.80;3.47;;;;;;;;;;4403330;32;318364;-85
2023/01/18 05:47:22;;;;;;;13.97;2.80;;;;;;;;;;4392849;32;318172;-84
2023/01/18 05:49:49;;;;;;;11.43;3.00;;;;;;;;;;4402340;32;318291;-84
2023/01/18 05:52:15;;;;;;;15.63;2.90;;;;;;;;;;4394809;32;317723;-84
2023/01/18 05:54:42;;;;;;;14.07;2.73;;;;;;;;;;4404095;32;318272;-84
2023/01/18 05:57:09;;;;;;;10.63;3.67;;;;;;;;;;4393924;32;318310;-85
2023/01/18 05:59:36;;;;;;;7.63;2.57;;;;;;;;;;4404343;32;317751;-84
2023/01/18 06:02:05;;;;;;;15.70;4.13;;;;;;;;;;4405095;32;317242;-85
2023/01/18 06:04:32;;;;;;;10.23;2.40;;;;;;;;;;4391682;32;417520;-85
2023/01/18 06:06:58;;;;;;;10.90;3.50;;;;;;;;;;4404867;32;318377;-84
2023/01/18 06:09:25;;;;;;;8.57;2.57;;;;;;;;;;4394693;32;318591;-85
2023/01/18 06:11:52;;;;;;;13.83;3.27;;;;;;;;;;4402801;32;317323;-84
2023/01/18 06:14:19;;;;;;;13.37;2.67;;;;;;;;;;4392820;32;332189;-85
2023/01/18 06:16:45;;;;;;;10.47;3.53;;;;;;;;;;4404012;32;317701;-85
2023/01/18 06:19:16;;;;;;;14.37;4.83;;;;;;;;;;4396644;32;318184;-85
2023/01/18 06:21:43;;;;;;;11.47;2.93;;;;;;;;;;4406846;32;318120;-85
2023/01/18 06:24:10;;;;;;;11.63;3.67;;;;;;;;;;4395527;32;387724;-86
2023/01/18 06:26:37;;;;;;;15.90;5.60;;;;;;;;;;4404730;32;335396;-86
2023/01/18 06:29:04;;;;;;;24.13;9.27;;;;;;;;;;4408724;32;318227;-85
2023/01/18 06:31:30;;;;;;;14.67;4.40;;;;;;;;;;4390343;32;416788;-85
2023/01/18 06:33:57;;;;;;;13.20;4.70;;;;;;;;;;4404591;32;317555;-85
2023/01/18 06:36:28;;;;;;;18.87;4.20;;;;;;;;;;4396575;32;318355;-83
2023/01/18 06:38:54;;;;;;;13.47;4.60;;;;;;;;;;4410151;32;317855;-84
2023/01/18 06:41:21;;;;;;;8.87;2.77;;;;;;;;;;4396256;32;318147;-84
2023/01/18 06:43:50;;;;;;;12.43;3.07;;;;;;;;;;4403354;32;354156;-85
2023/01/18 06:46:18;;;;;;;13.13;3.73;;;;;;;;;;4394463;32;318547;-84
2023/01/18 06:48:45;;;;;;;6.07;2.77;;;;;;;;;;4405684;32;317456;-84
2023/01/18 06:51:12;;;;;;;7.50;2.80;;;;;;;;;;4395851;32;317266;-84
2023/01/18 06:53:40;;;;;;;15.83;3.90;;;;;;;;;;4403295;32;317410;-85
2023/01/18 06:56:09;;;;;;;18.27;4.27;;;;;;;;;;4389695;32;332668;-84
2023/01/18 06:58:36;;;;;;;8.37;3.10;;;;;;;;;;4402239;32;318762;-84
2023/01/18 07:01:03;;;;;;;9.77;3.17;;;;;;;;;;4401172;32;317253;-84
2023/01/18 07:03:32;;;;;;;7.10;2.63;;;;;;;;;;4390646;32;416257;-84
2023/01/18 07:06:02;;;;;;;10.90;3.17;;;;;;;;;;4406147;32;317282;-84
2023/01/18 07:08:30;;;;;;;9.07;3.47;;;;;;;;;;4392296;32;318193;-85
2023/01/18 07:11:03;;;;;;;18.80;3.47;;;;;;;;;;4401144;32;317168;-85
2023/01/18 07:13:30;;;;;;;13.77;4.67;;;;;;;;;;4392630;32;329255;-84
2023/01/18 07:16:00;;;;;;;20.63;4.80;;;;;;;;;;4402235;32;317563;-84
2023/01/18 07:18:28;;;;;;;16.17;3.33;;;;;;;;;;4391308;32;318330;-84
2023/01/18 07:20:59;;;;;;;17.83;4.43;;;;;;;;;;4402209;32;318450;-85
2023/01/18 07:23:27;;;;;;;12.13;3.53;;;;;;;;;;4392881;32;317625;-86
2023/01/18 07:26:02;;;;;;;16.27;7.33;;;;;;;;;;4402882;32;318334;-86
2023/01/18 07:28:30;;;;;;;15.57;3.40;;;;;;;;;;4390023;32;318595;-84
2023/01/18 07:30:57;;;;;;;20.53;4.00;;;;;;;;;;4401933;32;317580;-84
2023/01/18 07:33:23;;;;;;;17.63;4.67;;;;;;;;;;4392142;32;318236;-87
2023/01/18 07:35:51;;;;;;;18.07;5.70;;;;;;;;;;4401232;32;317565;-84
2023/01/18 07:38:19;;;;;;;11.67;5.00;;;;;;;;;;4391648;32;317585;-85
2023/01/18 07:40:46;;;;;;;11.70;3.70;;;;;;;;;;4401689;32;317519;-85
2023/01/18 07:43:15;;;;;;;14.30;4.47;;;;;;;;;;4390328;32;318063;-87
2023/01/18 07:45:43;;;;;;;14.30;3.90;;;;;;;;;;4400491;32;318474;-84
2023/01/18 07:48:10;;;;;;;13.93;2.97;;;;;;;;;;4391900;32;318218;-84
2023/01/18 07:50:37;;;;;;;11.20;3.90;;;;;;;;;;4401349;32;318379;-83
2023/01/18 07:53:07;;;;;;;9.90;2.97;;;;;;;;;;4402183;32;318526;-86
2023/01/18 07:55:35;;;;;;;14.60;2.93;;;;;;;;;;4389161;32;416442;-84
2023/01/18 07:58:02;;;;;;;19.97;4.47;;;;;;;;;;4399747;32;318515;-84
2023/01/18 08:00:31;;;;;;;7.30;2.27;;;;;;;;;;4391819;32;317900;-84
2023/01/18 08:02:58;;;;;;;12.13;3.37;;;;;;;;;;4401403;32;317175;-85
2023/01/18 08:05:26;;;;;;;18.93;4.80;;;;;;;;;;4391879;32;318950;-84
2023/01/18 08:07:53;;;;;;;15.87;3.67;;;;;;;;;;4400127;32;318086;-84
2023/01/18 08:10:20;;;;;;;9.87;3.03;;;;;;;;;;4390057;32;325200;-84
2023/01/18 08:12:47;;;;;;;7.93;3.20;;;;;;;;;;4400364;32;316492;-84
2023/01/18 08:15:15;;;;;;;12.93;3.07;;;;;;;;;;4390038;32;330040;-83
2023/01/18 08:17:43;;;;;;;15.47;3.53;;;;;;;;;;4400494;32;317591;-84
2023/01/18 08:20:12;;;;;;;15.67;2.57;;;;;;;;;;4389547;32;318297;-84
2023/01/18 08:22:39;;;;;;;13.13;4.20;;;;;;;;;;4400805;32;317428;-84
2023/01/18 08:25:06;;;;;;;14.07;3.47;;;;;;;;;;4390486;32;318403;-85
2023/01/18 08:27:33;;;;;;;13.17;3.87;;;;;;;;;;4399581;32;318402;-84
2023/01/18 08:30:00;;;;;;;16.67;4.90;;;;;;;;;;4399444;32;353711;-84
2023/01/18 08:32:27;;;;;;;17.97;4.33;;;;;;;;;;4391115;32;317490;-83
2023/01/18 08:34:55;;;;;;;13.30;3.50;;;;;;;;;;4401008;32;318118;-84
2023/01/18 08:37:22;;;;;;;17.17;4.20;;;;;;;;;;4391270;32;318224;-84
2023/01/18 08:39:49;;;;;;;9.60;3.17;;;;;;;;;;4399260;32;348700;-84
2023/01/18 08:42:16;;;;;;;10.63;3.07;;;;;;;;;;4394030;32;317229;-84
2023/01/18 08:44:42;;;;;;;12.67;2.40;;;;;;;;;;4403581;32;318366;-84
2023/01/18 08:47:09;;;;;;;7.63;2.30;;;;;;;;;;4391986;32;318023;-85
2023/01/18 08:49:36;;;;;;;10.83;3.17;;;;;;;;;;4402514;32;316503;-84
2023/01/18 08:52:05;;;;;;;13.03;3.83;;;;;;;;;;4403706;32;317858;-84
2023/01/18 08:54:32;;;;;;;11.90;3.83;;;;;;;;;;4389547;32;417339;-83
2023/01/18 08:57:00;;;;;;;16.30;3.43;;;;;;;;;;4403623;32;318470;-83
2023/01/18 08:59:26;;;;;;;14.27;3.67;;;;;;;;;;4393427;32;317452;-83
2023/01/18 09:01:53;;;;;;;13.80;3.60;;;;;;;;;;4402507;32;317469;-83
2023/01/18 09:04:21;;;;;;;13.60;4.13;;;;;;;;;;4391777;32;339327;-84
2023/01/18 09:06:50;;;;;;;28.80;6.27;;;;;;;;;;4402759;32;318208;-83
2023/01/18 09:09:18;;;;;;;5.83;1.90;;;;;;;;;;4393821;32;317981;-83
2023/01/18 09:11:45;;;;;;;21.93;3.67;;;;;;;;;;4402577;32;317228;-82
2023/01/18 09:14:12;;;;;;;10.63;3.60;;;;;;;;;;4393911;32;317649;-83
2023/01/18 09:16:38;;;;;;;7.20;2.53;;;;;;;;;;4403855;32;318023;-83
2023/01/18 09:19:06;;;;;;;12.13;3.33;;;;;;;;;;4396981;32;317252;-87
2023/01/18 09:21:33;;;;;;;19.67;4.50;;;;;;;;;;4403546;32;318120;-83
2023/01/18 09:24:00;;;;;;;16.93;3.63;;;;;;;;;;4404057;32;318347;-83
2023/01/18 09:26:29;;;;;;;16.10;3.63;;;;;;;;;;4392826;32;318255;-84
2023/01/18 09:28:56;;;;;;;24.57;3.83;;;;;;;;;;4404243;32;317691;-83
2023/01/18 09:31:25;;;;;;;13.80;2.10;;;;;;;;;;4397912;32;318092;-84
2023/01/18 09:33:51;;;;;;;12.10;3.00;;;;;;;;;;4403906;32;318767;-83
2023/01/18 09:36:20;;;;;;;12.27;3.13;;;;;;;;;;4392581;32;318456;-83
2023/01/18 09:38:47;;;;;;;13.17;2.87;;;;;;;;;;4403510;32;318341;-83
2023/01/18 09:41:25;;;;;;;10.30;3.40;;;;;;;;;;4393752;32;318618;-84
2023/01/18 09:43:56;;;;;;;17.50;4.57;;;;;;;;;;4402858;32;318665;-86
2023/01/18 09:46:24;;;;;;;6.70;2.30;;;;;;;;;;4395734;32;332754;-85
2023/01/18 09:48:54;;;;;;;15.73;3.83;;;;;;;;;;4403516;32;317258;-83
2023/01/18 09:51:23;;;;;;;12.13;2.63;;;;;;;;;;4393150;32;319061;-85
2023/01/18 09:54:03;;;;;;;13.57;3.80;;;;;;;;;;4402087;32;324634;-84
2023/01/18 09:56:36;;;;;;;14.13;3.37;;;;;;;;;;4393469;32;318483;-85
2023/01/18 09:59:13;;;;;;;15.07;5.37;;;;;;;;;;4403582;32;317691;-86
2023/01/18 10:01:40;;;;;;;17.43;3.07;;;;;;;;;;4389860;32;417100;-86
2023/01/18 10:04:15;;;;;;;13.03;2.97;;;;;;;;;;4393324;32;318319;-86
2023/01/18 10:06:47;;;;;;;14.30;2.90;;;;;;;;;;4401955;32;318296;-87
2023/01/18 10:09:19;;;;;;;17.73;2.90;;;;;;;;;;4394975;32;317609;-88
2023/01/18 10:11:54;;;;;;;17.00;5.40;;;;;;;;;;4407092;32;318389;-87
2023/01/18 10:14:37;;;;;;;13.93;3.53;;;;;;;;;;4393483;32;318501;-86
2023/01/18 10:17:11;;;;;;;11.10;2.63;;;;;;;;;;4403532;32;320532;-88
2023/01/18 10:19:39;;;;;;;7.83;2.50;;;;;;;;;;4390455;32;418276;-88
2023/01/18 10:22:14;;;;;;;11.75;2.72;;;;;;;;;;4393559;32;317189;-87
2023/01/18 10:24:48;;;;;;;22.55;4.30;;;;;;;;;;4403520;32;317372;-85
2023/01/18 10:27:35;;;;;;;11.27;3.08;;;;;;;;;;4393392;32;319452;-85
2023/01/18 10:30:24;;;;;;;7.90;2.77;;;;;;;;;;4402844;32;318045;-85
2023/01/18 10:32:55;;;;;;;15.57;4.10;;;;;;;;;;4389428;32;416717;-85
2023/01/18 10:35:27;;;;;;;19.03;3.87;;;;;;;;;;4391799;32;318262;-86
2023/01/18 10:37:57;;;;;;;8.38;2.37;;;;;;;;;;4402580;32;318113;-87
2023/01/18 10:40:24;;;;;;;7.97;2.53;;;;;;;;;;4391644;32;321626;-86
2023/01/18 10:42:55;;;;;;;17.43;3.00;;;;;;;;;;4403161;32;316720;-85
2023/01/18 10:45:26;;;;;;;14.85;2.10;;;;;;;;;;4391664;32;317694;-85
2023/01/18 10:47:54;;;;;;;9.00;3.10;;;;;;;;;;4402569;32;318716;-85
2023/01/18 10:50:23;;;;;;;19.80;3.25;;;;;;;;;;4392692;32;317338;-85
2023/01/18 10:52:50;;;;;;;9.75;2.22;;;;;;;;;;4401743;32;317548;-84
2023/01/18 10:55:19;;;;;;;9.27;2.85;;;;;;;;;;4392213;32;317426;-84
2023/01/18 10:57:48;;;;;;;13.40;3.28;;;;;;;;;;4402488;32;317338;-85
2023/01/18 11:00:22;;;;;;;16.05;3.17;;;;;;;;;;4391134;32;318303;-86
2023/01/18 11:02:52;;;;;;;12.60;4.25;;;;;;;;;;4401702;32;317676;-84
2023/01/18 11:05:26;;;;;;;18.35;4.60;;;;;;;;;;4391242;32;319101;-86
2023/01/18 11:08:10;;;;;;;15.30;3.15;;;;;;;;;;4402448;32;318445;-87
2023/01/18 11:10:38;;;;;;;16.70;3.83;;;;;;;;;;4358062;32;417787;-85
2023/01/18 11:13:23;;;;;;;23.35;4.57;;;;;;;;;;4371875;32;317932;-86
2023/01/18 11:16:02;;;;;;;15.40;2.95;;;;;;;;;;4358008;32;418223;-84
2023/01/18 11:18:30;;;;;;;15.32;4.82;;;;;;;;;;4362191;32;318619;-84
2023/01/18 11:20:57;;;;;;;24.12;4.12;;;;;;;;;;4371259;32;317836;-84
2023/01/18 11:23:29;;;;;;;15.80;3.00;;;;;;;;;;4362058;32;317789;-84
2023/01/18 11:25:59;;;;;;;14.63;2.65;;;;;;;;;;4371576;32;318600;-84
2023/01/18 11:28:30;;;;;;;13.75;2.53;;;;;;;;;;4361871;32;318660;-84
2023/01/18 11:31:04;;;;;;;11.65;2.72;;;;;;;;;;4371549;32;318600;-84
2023/01/18 11:33:33;;;;;;;18.27;3.92;;;;;;;;;;4358101;32;416951;-84
2023/01/18 11:36:02;;;;;;;14.80;3.15;;;;;;;;;;4371792;32;318051;-84
2023/01/18 11:38:31;;;;;;;19.70;3.00;;;;;;;;;;4361158;32;318398;-84
2023/01/18 11:41:14;;;;;;;15.80;3.80;;;;;;;;;;4371684;32;317630;-84
2023/01/18 11:43:45;;;;;;;27.77;4.30;;;;;;;;;;4359246;32;417300;-84
2023/01/18 11:46:42;;;;;;;10.43;2.53;;;;;;;;;;4361647;32;318117;-85
2023/01/18 11:49:26;;;;;;;14.68;2.12;;;;;;;;;;4354026;32;318272;-84
2023/01/18 11:51:59;;;;;;;18.60;5.00;;;;;;;;;;4370802;32;317849;-84
2023/01/18 11:54:30;;;;;;;22.00;4.30;;;;;;;;;;4360706;32;317516;-84
2023/01/18 11:57:01;;;;;;;13.18;2.62;;;;;;;;;;4371458;32;318394;-85
2023/01/18 11:59:30;;;;;;;15.70;3.25;;;;;;;;;;4360354;32;318364;-85
2023/01/18 12:02:25;;;;;;;21.45;3.37;;;;;;;;;;4371260;32;318139;-84
2023/01/18 12:05:30;;;;;;;18.48;3.67;;;;;;;;;;4357251;32;418372;-84
2023/01/18 12:08:17;;;;;;;20.55;2.95;;;;;;;;;;4338705;32;418412;-84
2023/01/18 12:10:59;;;;;;;21.50;3.72;;;;;;;;;;4358523;32;418275;-85
2023/01/18 12:13:35;;;;;;;14.35;4.30;;;;;;;;;;4359187;32;357379;-85
2023/01/18 12:16:14;;;;;;;28.27;6.53;;;;;;;;;;4374074;32;317751;-85
2023/01/18 12:19:15;;;;;;;25.52;5.10;;;;;;;;;;4361751;32;418271;-86
2023/01/18 12:21:58;;;;;;;7.40;2.25;;;;;;;;;;4361202;32;418948;-85
2023/01/18 12:24:40;;;;;;;15.02;3.40;;;;;;;;;;4364680;32;317198;-84
2023/01/18 12:27:16;;;;;;;26.50;5.93;;;;;;;;;;4361862;32;353949;-86
2023/01/18 12:30:14;;;;;;;21.80;5.20;;;;;;;;;;4374926;32;318297;-84
2023/01/18 12:33:01;;;;;;;35.03;4.15;;;;;;;;;;4361728;32;418567;-84
2023/01/18 12:35:52;;;;;;;17.12;4.50;;;;;;;;;;4363811;32;318637;-83
2023/01/18 12:38:22;;;;;;;24.67;4.10;;;;;;;;;;4363945;32;318164;-83
2023/01/18 12:41:25;;;;;;;24.35;3.87;;;;;;;;;;4373379;32;317938;-83
2023/01/18 12:44:08;;;;;;;21.58;4.30;;;;;;;;;;4362014;32;418665;-83
2023/01/18 12:46:43;;;;;;;23.52;4.72;;;;;;;;;;4360611;32;418773;-85
2023/01/18 12:49:17;;;;;;;29.55;5.53;;;;;;;;;;4364465;32;330370;-83
2023/01/18 12:51:46;;;;;;;28.12;4.45;;;;;;;;;;4374440;32;318374;-83
2023/01/18 12:54:25;;;;;;;26.33;4.68;;;;;;;;;;4364830;32;318659;-85
2023/01/18 12:56:54;;;;;;;31.02;4.28;;;;;;;;;;4373551;32;317347;-83
2023/01/18 12:59:26;;;;;;;37.45;11.73;;;;;;;;;;4364902;32;318408;-85
2023/01/18 13:01:57;;;;;;;25.58;5.87;;;;;;;;;;4374441;32;319659;-84
2023/01/18 13:04:29;;;;;;;36.42;4.93;;;;;;;;;;4364696;32;318282;-84
2023/01/18 13:06:59;;;;;;;43.65;5.18;;;;;;;;;;4374596;32;318300;-84
2023/01/18 13:09:33;;;;;;;39.47;5.50;;;;;;;;;;4381178;32;317518;-84
2023/01/18 13:12:01;;;;;;;22.65;4.68;;;;;;;;;;4402118;32;317511;-84
2023/01/18 13:14:33;;;;;;;34.55;5.72;;;;;;;;;;4394990;32;318717;-84
2023/01/18 13:17:07;;;;;;;31.37;4.80;;;;;;;;;;4403178;32;317613;-84
2023/01/18 13:19:42;;;;;;;40.53;6.25;;;;;;;;;;4391730;32;417243;-84
2023/01/18 13:22:20;;;;;;;25.83;6.78;;;;;;;;;;4393521;32;318081;-85
2023/01/18 13:25:21;;;;;;;36.33;7.10;;;;;;;;;;4403101;32;318229;-84
2023/01/18 13:27:58;;;;;;;33.58;5.32;;;;;;;;;;4388696;32;418542;-84
2023/01/18 13:30:26;;;;;;;39.50;6.25;;;;;;;;;;4393007;32;339311;-84
2023/01/18 13:32:56;;;;;;;37.33;6.50;;;;;;;;;;4404253;32;317607;-84
2023/01/18 13:35:31;;;;;;;32.28;5.47;;;;;;;;;;4392935;32;318696;-84
2023/01/18 13:38:00;;;;;;;43.10;6.20;;;;;;;;;;4404212;32;317698;-84
2023/01/18 13:40:35;;;;;;;39.85;5.90;;;;;;;;;;4393928;32;318229;-84
2023/01/18 13:43:02;;;;;;;36.77;6.97;;;;;;;;;;4404245;32;318560;-84
2023/01/18 13:45:30;;;;;;;31.90;6.43;;;;;;;;;;4393831;32;318341;-84
2023/01/18 13:48:00;;;;;;;54.73;6.23;;;;;;;;;;4404070;32;317667;-83
2023/01/18 13:50:47;;;;;;;39.00;6.20;;;;;;;;;;4393905;32;317978;-84
2023/01/18 13:53:47;;;;;;;34.60;6.85;;;;;;;;;;4394184;32;318823;-84
2023/01/18 13:56:33;;;;;;;30.90;5.50;;;;;;;;;;4393527;32;317657;-84
2023/01/18 13:59:16;;;;;;;37.80;6.55;;;;;;;;;;4403354;32;333580;-84
2023/01/18 14:01:47;;;;;;;47.33;7.57;;;;;;;;;;4390773;32;417361;-84
2023/01/18 14:04:27;;;;;;;37.58;9.57;;;;;;;;;;4393888;32;318474;-84
2023/01/18 14:06:57;;;;;;;50.67;13.37;;;;;;;;;;4404019;32;318256;-84
2023/01/18 14:09:37;;;;;;;30.17;7.37;;;;;;;;;;4393437;32;319464;-84
2023/01/18 14:12:06;;;;;;;27.00;6.20;;;;;;;;;;4402580;32;318311;-84
2023/01/18 14:14:35;;;;;;;45.70;9.70;;;;;;;;;;4390339;32;418532;-84
2023/01/18 14:17:08;;;;;;;34.40;9.33;;;;;;;;;;4403543;32;318358;-84
2023/01/18 14:19:56;;;;;;;45.63;11.87;;;;;;;;;;4390838;32;417294;-84
2023/01/18 14:22:33;;;;;;;44.43;10.30;;;;;;;;;;4392571;32;319342;-84
2023/01/18 14:25:24;;;;;;;55.23;9.90;;;;;;;;;;4403459;32;319357;-84
2023/01/18 14:28:04;;;;;;;49.00;10.97;;;;;;;;;;4390918;32;418307;-84
2023/01/18 14:30:34;;;;;;;45.23;10.60;;;;;;;;;;4390349;32;419116;-84
2023/01/18 14:33:06;;;;;;;51.13;13.20;;;;;;;;;;4402187;32;319208;-84
2023/01/18 14:35:33;;;;;;;43.23;10.93;;;;;;;;;;4389244;32;419211;-84
2023/01/18 14:38:07;;;;;;;67.23;17.83;;;;;;;;;;4401282;32;319625;-84
2023/01/18 14:40:35;;;;;;;53.37;19.00;;;;;;;;;;4390091;32;418308;-84
2023/01/18 14:43:05;;;;;;;57.20;14.90;;;;;;;;;;4403369;32;319394;-84
2023/01/18 14:45:34;;;;;;;44.40;13.60;;;;;;;;;;4390011;32;418932;-84
2023/01/18 14:48:08;;;;;;;53.77;14.00;;;;;;;;;;4403151;32;318588;-83
2023/01/18 14:50:39;;;;;;;67.03;18.47;;;;;;;;;;4373701;32;418688;-84
2023/01/18 14:53:07;;;;;;;127.53;55.07;;;;;;;;;;4385846;32;355092;-84
2023/01/18 14:55:35;;;;;;;53.37;16.37;;;;;;;;;;4383742;32;419463;-84
2023/01/18 14:58:12;;;;;;;51.27;9.30;;;;;;;;;;4401877;32;319320;-84
2023/01/18 15:00:46;;;;;;;38.27;8.37;;;;;;;;;;4388937;32;417310;-84
2023/01/18 15:03:19;;;;;;;60.77;11.13;;;;;;;;;;4392978;32;318582;-84
2023/01/18 15:05:47;;;;;;;50.70;11.33;;;;;;;;;;4401680;32;318729;-84
2023/01/18 15:08:14;;;;;;;40.45;8.80;;;;;;;;;;4392341;32;318648;-84
2023/01/18 15:10:44;;;;;;;85.97;33.33;;;;;;;;;;4402707;32;318420;-83
2023/01/18 15:13:17;;;;;;;64.63;22.93;;;;;;;;;;4391569;32;319507;-85